McNeal, Arizona
Current Conditions -  °F | °C
As of 5:56 PM on Saturday 22 Nov 2014 (Local Time) from KDUG Reporting Station
Clear Clear  
Wind Chill: 58°   Ceiling: Unl
Heat Index: 58°   Visibility: 10mi
Dew Point: 24°   Wind: 5mph
Humidity: 27%   Direction: 280°W
Pressure: 30.01"   Gusts: NA
Location:  31.6°N, 109.67°W
Report Text: KDUG 230056Z AUTO 28004KT 10SM CLR 14/M04 A3001 RMK AO2 SLP143 T01441044
Loading
Personal Weather Stations






























Interactive Weather Map New forecast layout! Learn more

10-Day Weather Forecast

Advertisements
Track Severe Weather on mobile